Time;durP1;ratioP1;P1;durP2;ratioP2;P2;SDS_P1;SDS_P2;PMS_P1;PMS_P2;Temp;Humidity;BMP_temperature;BMP_pressure;BME280_temperature;BME280_humidity;BME280_pressure;Samples;Min_cycle;Max_cycle;Signal;HPM_P1;HPM_P2
2022/05/19 00:01:49;;;;;;;16.95;12.57;;;;;;;;;;5016573;28;20216;-72
2022/05/19 00:04:15;;;;;;;21.10;12.60;;;;;;;;;;5014830;28;20186;-72
2022/05/19 00:06:40;;;;;;;14.70;12.77;;;;;;;;;;5010453;28;21036;-72
2022/05/19 00:09:05;;;;;;;17.13;12.73;;;;;;;;;;5008439;28;20191;-72
2022/05/19 00:11:32;;;;;;;17.20;12.32;;;;;;;;;;5007341;28;20832;-72
2022/05/19 00:13:57;;;;;;;16.02;13.55;;;;;;;;;;5009129;28;20664;-72
2022/05/19 00:16:22;;;;;;;16.17;12.52;;;;;;;;;;5015149;28;20203;-72
2022/05/19 00:18:48;;;;;;;15.77;12.63;;;;;;;;;;5015879;28;20178;-72
2022/05/19 00:21:13;;;;;;;17.17;13.57;;;;;;;;;;5013366;28;20198;-73
2022/05/19 00:23:38;;;;;;;15.53;13.23;;;;;;;;;;5016527;28;20428;-72
2022/05/19 00:26:03;;;;;;;13.63;12.25;;;;;;;;;;5018855;28;20443;-72
2022/05/19 00:28:28;;;;;;;14.82;13.32;;;;;;;;;;5018463;28;20577;-72
2022/05/19 00:30:54;;;;;;;16.38;13.55;;;;;;;;;;5018146;28;20213;-72
2022/05/19 00:33:19;;;;;;;16.60;12.75;;;;;;;;;;5016467;28;20193;-72
2022/05/19 00:35:44;;;;;;;18.85;13.52;;;;;;;;;;5016197;28;20185;-72
2022/05/19 00:38:09;;;;;;;13.90;12.48;;;;;;;;;;5016907;28;20178;-72
2022/05/19 00:40:35;;;;;;;15.85;13.45;;;;;;;;;;5016643;28;20369;-72
2022/05/19 00:43:00;;;;;;;15.90;13.40;;;;;;;;;;5019377;28;20621;-73
2022/05/19 00:45:27;;;;;;;16.13;14.43;;;;;;;;;;5020489;28;20187;-73
2022/05/19 00:47:56;;;;;;;17.67;15.10;;;;;;;;;;5023147;28;20729;-70
2022/05/19 00:50:21;;;;;;;19.27;14.38;;;;;;;;;;5020389;28;20777;-71
2022/05/19 00:52:47;;;;;;;17.35;15.45;;;;;;;;;;5014482;28;20175;-70
2022/05/19 00:55:14;;;;;;;20.17;14.75;;;;;;;;;;5014910;28;20266;-73
2022/05/19 00:57:51;;;;;;;18.35;14.38;;;;;;;;;;5014723;28;20214;-71
2022/05/19 01:00:18;;;;;;;17.00;14.55;;;;;;;;;;5015822;28;20193;-71
2022/05/19 01:02:47;;;;;;;19.85;15.80;;;;;;;;;;5015137;28;20183;-71
2022/05/19 01:05:14;;;;;;;16.15;14.32;;;;;;;;;;5018077;28;20249;-70
2022/05/19 01:07:43;;;;;;;17.45;15.60;;;;;;;;;;5012041;28;20664;-73
2022/05/19 01:10:08;;;;;;;17.20;15.30;;;;;;;;;;5015783;28;20217;-73
2022/05/19 01:12:34;;;;;;;21.35;15.48;;;;;;;;;;5015214;28;20202;-71
2022/05/19 01:15:00;;;;;;;23.30;16.65;;;;;;;;;;5032634;28;20692;-73
2022/05/19 01:17:25;;;;;;;17.15;15.25;;;;;;;;;;5006172;28;20537;-72
2022/05/19 01:19:55;;;;;;;19.63;15.95;;;;;;;;;;5011869;28;20679;-70
2022/05/19 01:22:23;;;;;;;17.67;15.77;;;;;;;;;;5030182;28;20302;-73
2022/05/19 01:24:58;;;;;;;19.10;15.85;;;;;;;;;;5018490;28;20190;-71
2022/05/19 01:27:23;;;;;;;22.20;17.05;;;;;;;;;;5017337;28;20205;-71
2022/05/19 01:29:48;;;;;;;23.17;16.98;;;;;;;;;;5018090;28;20779;-72
2022/05/19 01:32:25;;;;;;;21.52;16.70;;;;;;;;;;5019074;28;20703;-71
2022/05/19 01:34:51;;;;;;;19.60;15.13;;;;;;;;;;5017755;28;20178;-72
2022/05/19 01:37:16;;;;;;;18.92;15.63;;;;;;;;;;5014962;28;20190;-72
2022/05/19 01:39:44;;;;;;;20.17;16.92;;;;;;;;;;5010838;28;20175;-71
2022/05/19 01:42:09;;;;;;;18.33;16.40;;;;;;;;;;5019098;28;20621;-72
2022/05/19 01:44:34;;;;;;;20.17;15.57;;;;;;;;;;5016128;28;20209;-72
2022/05/19 01:47:20;;;;;;;17.73;15.90;;;;;;;;;;5015222;28;20270;-71
2022/05/19 01:49:52;;;;;;;22.15;17.17;;;;;;;;;;5005213;28;20431;-72
2022/05/19 01:52:40;;;;;;;21.45;17.40;;;;;;;;;;5012493;28;20210;-72
2022/05/19 01:55:09;;;;;;;26.13;17.13;;;;;;;;;;5008443;28;20195;-73
2022/05/19 01:57:37;;;;;;;20.40;18.20;;;;;;;;;;5013142;28;20277;-72
2022/05/19 02:00:19;;;;;;;19.98;16.92;;;;;;;;;;5019850;28;20757;-70
2022/05/19 02:03:03;;;;;;;26.45;18.55;;;;;;;;;;5016365;28;20747;-72
2022/05/19 02:05:44;;;;;;;19.20;17.08;;;;;;;;;;5022226;28;20175;-73
2022/05/19 02:08:12;;;;;;;21.02;17.38;;;;;;;;;;5011574;28;20179;-72
2022/05/19 02:10:40;;;;;;;19.45;17.35;;;;;;;;;;5010528;28;20199;-73
2022/05/19 02:13:05;;;;;;;20.02;17.52;;;;;;;;;;5018012;28;20259;-72
2022/05/19 02:15:34;;;;;;;23.70;18.47;;;;;;;;;;5011662;28;20190;-71
2022/05/19 02:17:59;;;;;;;20.35;18.27;;;;;;;;;;5020108;28;20436;-72
2022/05/19 02:20:26;;;;;;;21.63;18.40;;;;;;;;;;5009499;28;20982;-72
2022/05/19 02:22:51;;;;;;;22.40;19.33;;;;;;;;;;5012408;28;20183;-72
2022/05/19 02:25:27;;;;;;;23.58;18.80;;;;;;;;;;5013535;28;20186;-72
2022/05/19 02:28:01;;;;;;;24.38;20.00;;;;;;;;;;5014283;28;20186;-73
2022/05/19 02:30:28;;;;;;;21.73;19.55;;;;;;;;;;5010174;28;20637;-72
2022/05/19 02:32:54;;;;;;;21.73;19.23;;;;;;;;;;5011773;28;20186;-70
2022/05/19 02:35:19;;;;;;;22.08;19.77;;;;;;;;;;5015957;28;20179;-71
2022/05/19 02:37:45;;;;;;;22.67;19.30;;;;;;;;;;5011438;28;20187;-72
2022/05/19 02:40:11;;;;;;;20.67;18.48;;;;;;;;;;5015004;28;20182;-72
2022/05/19 02:42:36;;;;;;;25.23;19.83;;;;;;;;;;5012275;28;20178;-71
2022/05/19 02:45:02;;;;;;;24.33;21.83;;;;;;;;;;5012299;28;20565;-71
2022/05/19 02:47:27;;;;;;;24.13;21.52;;;;;;;;;;5011829;28;20187;-70
2022/05/19 02:49:52;;;;;;;25.98;23.17;;;;;;;;;;5011164;28;20197;-71
2022/05/19 02:52:17;;;;;;;26.67;20.88;;;;;;;;;;5011608;28;20214;-71
2022/05/19 02:54:43;;;;;;;19.70;14.60;;;;;;;;;;5011097;28;20333;-72
2022/05/19 02:57:08;;;;;;;17.98;12.23;;;;;;;;;;5012220;28;20436;-73
2022/05/19 02:59:33;;;;;;;13.27;6.80;;;;;;;;;;5007718;28;20175;-72
2022/05/19 03:01:58;;;;;;;13.97;6.27;;;;;;;;;;5011898;28;20491;-75
2022/05/19 03:04:23;;;;;;;10.55;4.30;;;;;;;;;;5032262;28;20432;-72
2022/05/19 03:06:49;;;;;;;7.47;3.42;;;;;;;;;;5015184;28;20190;-73
2022/05/19 03:09:14;;;;;;;3.10;1.88;;;;;;;;;;5007955;28;20183;-72
2022/05/19 03:11:39;;;;;;;2.37;1.07;;;;;;;;;;5014402;28;20222;-73
2022/05/19 03:14:04;;;;;;;3.83;1.38;;;;;;;;;;5011527;28;20454;-73
2022/05/19 03:16:30;;;;;;;3.22;1.10;;;;;;;;;;5013154;28;20507;-74
2022/05/19 03:18:55;;;;;;;1.33;1.05;;;;;;;;;;5000709;28;20188;-75
2022/05/19 03:21:20;;;;;;;2.08;1.23;;;;;;;;;;5009606;28;20225;-75
2022/05/19 03:23:45;;;;;;;2.80;1.53;;;;;;;;;;5009320;28;20205;-74
2022/05/19 03:26:10;;;;;;;3.15;1.08;;;;;;;;;;5007471;28;20563;-75
2022/05/19 03:28:36;;;;;;;2.38;1.25;;;;;;;;;;5007516;28;20183;-74
2022/05/19 03:31:01;;;;;;;2.50;1.30;;;;;;;;;;5010736;28;20217;-74
2022/05/19 03:33:26;;;;;;;1.88;1.40;;;;;;;;;;5013995;28;20175;-75
2022/05/19 03:35:55;;;;;;;2.08;1.30;;;;;;;;;;5014965;28;20574;-74
2022/05/19 03:38:20;;;;;;;3.25;1.92;;;;;;;;;;5012804;28;20201;-74
2022/05/19 03:40:46;;;;;;;3.33;2.13;;;;;;;;;;5030706;28;20503;-74
2022/05/19 03:43:11;;;;;;;2.20;1.60;;;;;;;;;;5017471;28;20515;-73
2022/05/19 03:45:36;;;;;;;3.50;2.00;;;;;;;;;;5009602;28;20183;-72
2022/05/19 03:48:01;;;;;;;3.53;2.28;;;;;;;;;;5013149;28;20938;-73
2022/05/19 03:50:27;;;;;;;4.13;2.03;;;;;;;;;;5009679;28;20213;-73
2022/05/19 03:52:52;;;;;;;3.30;2.22;;;;;;;;;;5010266;28;20234;-73
2022/05/19 03:55:18;;;;;;;4.47;3.40;;;;;;;;;;5011351;28;20183;-72
2022/05/19 03:57:43;;;;;;;3.45;2.40;;;;;;;;;;5010896;28;20183;-74
2022/05/19 04:00:09;;;;;;;3.53;2.20;;;;;;;;;;5014205;28;20209;-72
2022/05/19 04:02:35;;;;;;;4.28;2.80;;;;;;;;;;5016146;28;20233;-73
2022/05/19 04:05:00;;;;;;;8.20;4.40;;;;;;;;;;5012057;28;20175;-73
2022/05/19 04:07:25;;;;;;;6.72;3.65;;;;;;;;;;5026444;28;20431;-73
2022/05/19 04:09:50;;;;;;;3.38;3.08;;;;;;;;;;5006275;28;20179;-73
2022/05/19 04:12:20;;;;;;;2.92;2.63;;;;;;;;;;5013314;28;20211;-74
2022/05/19 04:14:45;;;;;;;5.10;2.53;;;;;;;;;;5024163;28;20176;-74
2022/05/19 04:17:10;;;;;;;4.15;3.10;;;;;;;;;;5011371;28;20176;-73
2022/05/19 04:19:35;;;;;;;5.47;2.65;;;;;;;;;;5006463;28;20182;-73
2022/05/19 04:22:01;;;;;;;2.72;2.47;;;;;;;;;;5009317;28;20202;-73
2022/05/19 04:24:26;;;;;;;4.85;3.25;;;;;;;;;;5009630;28;20556;-73
2022/05/19 04:26:52;;;;;;;5.57;2.92;;;;;;;;;;5009636;28;20183;-74
2022/05/19 04:29:17;;;;;;;2.90;2.60;;;;;;;;;;5010002;28;20210;-73
2022/05/19 04:31:42;;;;;;;6.18;3.13;;;;;;;;;;5010014;28;20207;-73
2022/05/19 04:34:07;;;;;;;3.38;3.00;;;;;;;;;;5010329;28;20253;-73
2022/05/19 04:36:32;;;;;;;2.90;2.50;;;;;;;;;;5010179;28;20229;-72
2022/05/19 04:38:57;;;;;;;5.88;3.35;;;;;;;;;;5019575;28;20948;-74
2022/05/19 04:41:23;;;;;;;4.32;2.92;;;;;;;;;;5014438;28;20203;-72
2022/05/19 04:43:48;;;;;;;4.30;2.80;;;;;;;;;;5017474;28;20183;-72
2022/05/19 04:46:13;;;;;;;5.22;3.00;;;;;;;;;;5013094;28;20928;-72
2022/05/19 04:48:38;;;;;;;4.90;3.20;;;;;;;;;;5012225;28;20470;-72
2022/05/19 04:51:04;;;;;;;3.60;3.30;;;;;;;;;;5008861;28;20207;-74
2022/05/19 04:53:29;;;;;;;5.38;3.10;;;;;;;;;;5014357;28;20187;-74
2022/05/19 04:55:55;;;;;;;6.63;3.40;;;;;;;;;;5015352;28;20221;-74
2022/05/19 04:58:21;;;;;;;3.90;3.20;;;;;;;;;;5026032;28;20262;-74
2022/05/19 05:00:47;;;;;;;3.75;3.25;;;;;;;;;;5001895;28;20205;-73
2022/05/19 05:03:13;;;;;;;4.15;3.25;;;;;;;;;;5010003;28;20205;-74
2022/05/19 05:05:38;;;;;;;3.70;2.70;;;;;;;;;;5009817;28;20656;-74
2022/05/19 05:08:03;;;;;;;3.77;3.10;;;;;;;;;;5008760;28;20432;-73
2022/05/19 05:10:29;;;;;;;3.83;3.10;;;;;;;;;;5023274;28;20454;-74
2022/05/19 05:12:54;;;;;;;4.35;3.70;;;;;;;;;;5013813;28;20814;-74
2022/05/19 05:15:19;;;;;;;3.72;3.42;;;;;;;;;;5013690;28;20175;-74
2022/05/19 05:17:44;;;;;;;4.30;3.58;;;;;;;;;;5026072;28;20577;-73
2022/05/19 05:20:12;;;;;;;3.75;3.40;;;;;;;;;;5013255;28;20262;-74
2022/05/19 05:22:37;;;;;;;6.82;3.95;;;;;;;;;;5010658;28;20722;-74
2022/05/19 05:25:04;;;;;;;5.65;3.72;;;;;;;;;;5013030;28;20175;-74
2022/05/19 05:27:30;;;;;;;4.05;3.42;;;;;;;;;;5011753;28;20245;-74
2022/05/19 05:29:55;;;;;;;6.05;3.70;;;;;;;;;;5016957;28;20201;-73
2022/05/19 05:32:20;;;;;;;4.97;4.40;;;;;;;;;;5014242;28;20546;-73
2022/05/19 05:34:45;;;;;;;5.50;3.43;;;;;;;;;;5014524;28;20422;-73
2022/05/19 05:37:10;;;;;;;4.50;4.07;;;;;;;;;;5025062;28;20583;-73
2022/05/19 05:39:35;;;;;;;4.10;3.60;;;;;;;;;;5015430;28;20175;-74
2022/05/19 05:42:01;;;;;;;4.60;4.10;;;;;;;;;;5014929;28;20471;-74
2022/05/19 05:44:26;;;;;;;5.78;4.00;;;;;;;;;;5032087;28;20716;-73
2022/05/19 05:46:51;;;;;;;5.27;4.70;;;;;;;;;;5011818;28;20222;-73
2022/05/19 05:49:18;;;;;;;6.07;4.45;;;;;;;;;;5012827;28;20429;-74
2022/05/19 05:51:43;;;;;;;5.70;4.97;;;;;;;;;;5011595;28;20235;-73
2022/05/19 05:54:10;;;;;;;5.65;5.15;;;;;;;;;;5031798;28;20202;-73
2022/05/19 05:56:35;;;;;;;7.55;5.38;;;;;;;;;;5031252;28;20194;-73
2022/05/19 05:59:00;;;;;;;9.05;5.38;;;;;;;;;;5012009;28;20171;-74
2022/05/19 06:01:25;;;;;;;5.50;4.67;;;;;;;;;;5018223;28;20203;-74
2022/05/19 06:03:51;;;;;;;5.38;4.35;;;;;;;;;;5012346;28;20440;-73
2022/05/19 06:06:16;;;;;;;5.97;4.50;;;;;;;;;;5011666;28;20197;-73
2022/05/19 06:08:42;;;;;;;6.72;4.10;;;;;;;;;;5014008;28;20182;-73
2022/05/19 06:11:07;;;;;;;6.78;4.18;;;;;;;;;;5010807;28;20302;-72
2022/05/19 06:13:33;;;;;;;5.03;3.70;;;;;;;;;;5015244;28;20175;-73
2022/05/19 06:15:58;;;;;;;5.40;4.55;;;;;;;;;;5011690;28;20175;-73
2022/05/19 06:18:25;;;;;;;4.53;3.67;;;;;;;;;;5010838;28;20665;-73
2022/05/19 06:20:50;;;;;;;4.03;3.53;;;;;;;;;;5010752;28;20229;-73
2022/05/19 06:23:17;;;;;;;6.50;4.35;;;;;;;;;;5010182;28;20513;-73
2022/05/19 06:25:42;;;;;;;6.60;4.35;;;;;;;;;;5013946;28;20186;-73
2022/05/19 06:28:07;;;;;;;4.30;3.85;;;;;;;;;;5011002;28;20179;-73
2022/05/19 06:30:33;;;;;;;4.30;3.90;;;;;;;;;;5013855;28;20237;-73
2022/05/19 06:32:58;;;;;;;7.35;3.95;;;;;;;;;;5011440;28;20523;-73
2022/05/19 06:35:24;;;;;;;4.35;3.90;;;;;;;;;;5011568;28;20175;-74
2022/05/19 06:37:50;;;;;;;4.03;3.63;;;;;;;;;;5017571;28;20612;-73
2022/05/19 06:40:15;;;;;;;4.43;4.03;;;;;;;;;;5031397;28;20179;-73
2022/05/19 06:42:41;;;;;;;6.57;4.20;;;;;;;;;;5021382;28;20172;-73
2022/05/19 06:45:07;;;;;;;3.58;3.28;;;;;;;;;;5013014;28;20214;-73
2022/05/19 06:47:32;;;;;;;4.25;3.50;;;;;;;;;;5014946;28;20186;-73
2022/05/19 06:49:58;;;;;;;6.57;4.32;;;;;;;;;;5013017;28;20237;-73
2022/05/19 06:52:31;;;;;;;4.85;3.85;;;;;;;;;;5018110;28;20206;-73
2022/05/19 06:54:57;;;;;;;4.50;3.63;;;;;;;;;;5018676;28;20186;-73
2022/05/19 06:57:23;;;;;;;4.53;3.88;;;;;;;;;;5013918;28;20684;-73
2022/05/19 06:59:49;;;;;;;4.25;3.63;;;;;;;;;;4995609;28;21136;-73
2022/05/19 07:02:15;;;;;;;4.32;3.90;;;;;;;;;;5020022;28;20202;-74
2022/05/19 07:04:40;;;;;;;5.13;4.05;;;;;;;;;;5013296;28;20186;-73
2022/05/19 07:07:05;;;;;;;5.10;3.63;;;;;;;;;;5014628;28;20190;-73
2022/05/19 07:09:31;;;;;;;6.00;4.72;;;;;;;;;;5016620;28;20175;-73
2022/05/19 07:11:57;;;;;;;5.35;4.28;;;;;;;;;;5011682;28;20249;-73
2022/05/19 07:14:22;;;;;;;4.75;3.65;;;;;;;;;;5012913;28;20191;-73
2022/05/19 07:16:48;;;;;;;4.32;3.90;;;;;;;;;;5012465;28;20505;-73
2022/05/19 07:21:58;;;;;;;4.32;3.70;;;;;;;;;;5008593;28;20256;-73
2022/05/19 07:24:24;;;;;;;6.03;3.90;;;;;;;;;;5013670;28;20195;-73
2022/05/19 07:26:54;;;;;;;5.30;4.25;;;;;;;;;;5013333;28;20202;-73
2022/05/19 07:29:19;;;;;;;6.10;4.10;;;;;;;;;;5027064;28;20178;-73
2022/05/19 07:31:46;;;;;;;5.60;3.97;;;;;;;;;;5012518;28;20218;-73
2022/05/19 07:34:12;;;;;;;4.60;3.88;;;;;;;;;;5026023;28;20178;-72
2022/05/19 07:36:38;;;;;;;4.38;3.92;;;;;;;;;;4996806;28;20180;-72
2022/05/19 07:39:03;;;;;;;4.43;3.88;;;;;;;;;;5013148;28;20652;-72
2022/05/19 07:41:29;;;;;;;3.97;3.67;;;;;;;;;;5011418;28;20211;-73
2022/05/19 07:43:54;;;;;;;5.80;4.57;;;;;;;;;;5012988;28;20432;-72
2022/05/19 07:46:19;;;;;;;5.27;3.83;;;;;;;;;;5027253;28;20640;-72
2022/05/19 07:48:44;;;;;;;4.78;3.95;;;;;;;;;;5017571;28;20425;-72
2022/05/19 07:51:10;;;;;;;5.32;3.85;;;;;;;;;;5010064;28;20217;-72
2022/05/19 07:53:36;;;;;;;4.23;3.87;;;;;;;;;;5013766;28;20616;-72
2022/05/19 07:56:01;;;;;;;7.03;3.53;;;;;;;;;;5014805;28;20444;-72
2022/05/19 07:58:26;;;;;;;4.45;3.58;;;;;;;;;;5013946;28;20225;-72
2022/05/19 08:00:52;;;;;;;4.43;3.63;;;;;;;;;;5014793;28;20209;-72
2022/05/19 08:03:18;;;;;;;4.45;3.50;;;;;;;;;;5022032;28;20182;-72
2022/05/19 08:05:44;;;;;;;5.97;3.83;;;;;;;;;;5011497;28;20175;-72
2022/05/19 08:08:09;;;;;;;3.88;3.47;;;;;;;;;;5012192;28;20182;-72
2022/05/19 08:10:35;;;;;;;4.18;3.58;;;;;;;;;;5014200;28;20243;-72
2022/05/19 08:15:45;;;;;;;3.22;2.92;;;;;;;;;;5011169;28;20236;-73
2022/05/19 08:18:10;;;;;;;3.33;2.97;;;;;;;;;;5014301;28;20183;-71
2022/05/19 08:20:39;;;;;;;4.00;3.40;;;;;;;;;;5015531;28;20247;-71
2022/05/19 08:23:05;;;;;;;5.03;3.78;;;;;;;;;;5017953;28;20423;-72
2022/05/19 08:25:30;;;;;;;4.10;3.45;;;;;;;;;;5013525;28;20191;-71
2022/05/19 08:27:56;;;;;;;4.05;3.65;;;;;;;;;;5011301;28;20301;-72
2022/05/19 08:30:21;;;;;;;4.07;3.50;;;;;;;;;;5011481;28;20225;-71
2022/05/19 08:32:47;;;;;;;5.75;3.10;;;;;;;;;;5011663;28;20234;-73
2022/05/19 08:35:12;;;;;;;4.78;4.38;;;;;;;;;;5011960;28;20170;-71
2022/05/19 08:37:38;;;;;;;4.13;3.17;;;;;;;;;;5011439;28;20718;-71
2022/05/19 08:40:03;;;;;;;4.22;3.47;;;;;;;;;;5011883;28;20426;-72
2022/05/19 08:42:31;;;;;;;6.63;3.90;;;;;;;;;;5011334;28;20250;-71
2022/05/19 08:44:58;;;;;;;5.20;3.95;;;;;;;;;;5014674;28;20233;-72
2022/05/19 08:47:28;;;;;;;5.30;3.70;;;;;;;;;;5018053;28;20661;-72
2022/05/19 08:49:58;;;;;;;3.97;3.58;;;;;;;;;;5017602;28;20262;-73
2022/05/19 08:52:25;;;;;;;4.85;4.38;;;;;;;;;;5011931;28;20206;-73
2022/05/19 08:54:52;;;;;;;5.72;4.65;;;;;;;;;;5018477;28;20183;-73
2022/05/19 08:57:22;;;;;;;5.95;5.10;;;;;;;;;;5018349;28;20198;-73
2022/05/19 09:00:02;;;;;;;12.40;6.88;;;;;;;;;;5014554;28;20687;-72
2022/05/19 09:02:31;;;;;;;12.80;6.20;;;;;;;;;;5018691;28;20225;-73
2022/05/19 09:05:16;;;;;;;7.93;6.00;;;;;;;;;;5014865;28;20237;-73
2022/05/19 09:07:56;;;;;;;9.13;5.63;;;;;;;;;;5021881;28;20209;-72
2022/05/19 09:10:22;;;;;;;7.47;6.00;;;;;;;;;;5016232;28;20199;-73
2022/05/19 09:12:49;;;;;;;6.53;5.85;;;;;;;;;;5015230;28;20206;-73
2022/05/19 09:15:14;;;;;;;6.90;6.20;;;;;;;;;;5014336;28;20664;-73
2022/05/19 09:17:44;;;;;;;5.90;5.40;;;;;;;;;;5013523;28;20183;-73
2022/05/19 09:20:13;;;;;;;8.05;5.68;;;;;;;;;;5013800;28;20237;-73
2022/05/19 09:22:40;;;;;;;6.15;5.55;;;;;;;;;;5014832;28;20332;-72
2022/05/19 09:25:07;;;;;;;7.20;5.95;;;;;;;;;;5014507;28;20185;-72
2022/05/19 09:27:35;;;;;;;5.50;5.00;;;;;;;;;;5015845;28;20189;-73
2022/05/19 09:30:00;;;;;;;6.20;5.03;;;;;;;;;;5007680;28;20205;-73
2022/05/19 09:32:29;;;;;;;6.43;5.77;;;;;;;;;;5014130;28;20303;-73
2022/05/19 09:35:03;;;;;;;5.70;5.10;;;;;;;;;;5019613;28;20450;-72
2022/05/19 09:37:37;;;;;;;5.18;4.68;;;;;;;;;;5017527;28;20190;-72
2022/05/19 09:40:12;;;;;;;8.07;5.40;;;;;;;;;;5013294;28;20178;-72
2022/05/19 09:42:49;;;;;;;5.35;4.88;;;;;;;;;;5013729;28;20683;-72
2022/05/19 09:45:14;;;;;;;5.97;4.60;;;;;;;;;;5014661;28;20189;-72
2022/05/19 09:47:41;;;;;;;4.75;4.38;;;;;;;;;;5017516;28;20198;-72
2022/05/19 09:50:17;;;;;;;6.75;5.32;;;;;;;;;;5011326;28;20190;-72
2022/05/19 09:52:43;;;;;;;6.22;4.95;;;;;;;;;;5025645;28;20203;-72
2022/05/19 09:55:09;;;;;;;5.40;4.90;;;;;;;;;;5015116;28;20187;-72
2022/05/19 09:57:50;;;;;;;6.13;5.05;;;;;;;;;;5007589;28;20224;-72
2022/05/19 10:00:21;;;;;;;6.55;5.13;;;;;;;;;;5018312;28;20185;-72
2022/05/19 10:02:49;;;;;;;6.03;5.38;;;;;;;;;;5009546;28;20183;-71
2022/05/19 10:05:29;;;;;;;6.40;5.45;;;;;;;;;;5017663;28;20193;-71
2022/05/19 10:07:57;;;;;;;8.60;5.95;;;;;;;;;;5011332;28;20242;-72
2022/05/19 10:10:25;;;;;;;6.00;5.25;;;;;;;;;;5028437;28;20226;-71
2022/05/19 10:12:50;;;;;;;7.90;6.53;;;;;;;;;;5013992;28;20234;-71
2022/05/19 10:15:18;;;;;;;6.13;5.63;;;;;;;;;;5013537;28;20627;-71
2022/05/19 10:18:00;;;;;;;7.80;5.78;;;;;;;;;;5010994;28;20707;-71
2022/05/19 10:20:30;;;;;;;6.97;5.05;;;;;;;;;;5027597;28;20209;-71
2022/05/19 10:23:14;;;;;;;6.30;5.70;;;;;;;;;;5013856;28;20211;-71
2022/05/19 10:25:42;;;;;;;7.00;6.28;;;;;;;;;;5015641;28;20183;-71
2022/05/19 10:31:18;;;;;;;7.78;6.00;;;;;;;;;;5019197;28;20238;-72
2022/05/19 10:33:51;;;;;;;6.00;5.40;;;;;;;;;;5015634;28;20218;-71
2022/05/19 10:36:33;;;;;;;7.47;6.78;;;;;;;;;;5027391;28;20182;-73
2022/05/19 10:39:01;;;;;;;7.03;6.30;;;;;;;;;;5016106;28;20171;-72
2022/05/19 10:41:40;;;;;;;6.93;6.20;;;;;;;;;;4999737;28;20795;-72
2022/05/19 10:44:29;;;;;;;7.47;6.60;;;;;;;;;;5015230;28;20202;-71
2022/05/19 10:46:59;;;;;;;7.20;6.10;;;;;;;;;;5008651;28;20688;-71
2022/05/19 10:49:36;;;;;;;8.00;7.30;;;;;;;;;;5010580;28;20427;-72
2022/05/19 10:52:11;;;;;;;8.25;7.45;;;;;;;;;;5010575;28;20228;-72
2022/05/19 10:54:49;;;;;;;8.77;7.95;;;;;;;;;;5014303;28;20558;-72
2022/05/19 10:57:18;;;;;;;8.48;7.68;;;;;;;;;;5015747;28;20171;-71
2022/05/19 10:59:55;;;;;;;9.70;7.22;;;;;;;;;;5027100;28;20575;-71
2022/05/19 11:02:32;;;;;;;10.40;7.03;;;;;;;;;;5014870;28;20297;-72
2022/05/19 11:05:01;;;;;;;7.75;7.05;;;;;;;;;;5012664;28;20561;-73
2022/05/19 11:07:44;;;;;;;12.07;8.38;;;;;;;;;;5006377;28;20179;-71
2022/05/19 11:10:22;;;;;;;8.23;7.32;;;;;;;;;;5009268;28;20260;-72
2022/05/19 11:13:06;;;;;;;9.07;8.07;;;;;;;;;;5010394;28;20233;-71
2022/05/19 11:15:38;;;;;;;8.45;7.65;;;;;;;;;;5019308;28;20189;-71
2022/05/19 11:18:04;;;;;;;9.68;8.57;;;;;;;;;;5019096;28;20179;-72
2022/05/19 11:20:48;;;;;;;11.32;9.85;;;;;;;;;;5017207;28;20195;-72
2022/05/19 11:23:32;;;;;;;11.48;10.40;;;;;;;;;;5012271;28;20185;-71
2022/05/19 11:26:23;;;;;;;15.68;14.02;;;;;;;;;;5014706;28;20266;-71
2022/05/19 11:28:55;;;;;;;18.73;16.17;;;;;;;;;;5011737;28;20183;-72
2022/05/19 11:31:43;;;;;;;9.45;5.63;;;;;;;;;;5015091;28;20214;-72
2022/05/19 11:34:32;;;;;;;2.55;1.90;;;;;;;;;;4994266;28;20183;-72
2022/05/19 11:37:00;;;;;;;3.72;2.30;;;;;;;;;;4979598;28;20191;-72
2022/05/19 11:39:36;;;;;;;4.82;2.80;;;;;;;;;;5011835;28;20182;-72
2022/05/19 11:42:16;;;;;;;3.88;2.50;;;;;;;;;;5014064;28;20202;-72
2022/05/19 11:44:43;;;;;;;4.65;3.90;;;;;;;;;;5013527;28;20187;-72
2022/05/19 11:56:01;;;;;;;11.63;10.43;;;;;;;;;;5005599;28;20197;-72
2022/05/19 11:58:28;;;;;;;12.00;10.52;;;;;;;;;;5011843;28;20178;-72
2022/05/19 12:01:20;;;;;;;13.65;12.30;;;;;;;;;;5018173;28;20201;-72
2022/05/19 12:03:45;;;;;;;14.38;12.88;;;;;;;;;;5012685;28;20197;-72
2022/05/19 12:06:13;;;;;;;17.35;15.15;;;;;;;;;;4998668;28;20171;-73
2022/05/19 12:08:40;;;;;;;19.52;15.13;;;;;;;;;;5017149;28;20185;-72
2022/05/19 12:11:14;;;;;;;19.35;15.95;;;;;;;;;;5009874;28;20203;-72
2022/05/19 12:13:45;;;;;;;19.08;17.17;;;;;;;;;;5007980;28;20183;-72
2022/05/19 12:16:12;;;;;;;21.35;18.42;;;;;;;;;;5003574;28;20178;-72
2022/05/19 12:18:42;;;;;;;23.58;21.13;;;;;;;;;;5009749;28;20197;-72
2022/05/19 12:21:07;;;;;;;22.30;20.02;;;;;;;;;;5014356;28;20209;-72
2022/05/19 12:23:34;;;;;;;23.70;21.23;;;;;;;;;;5007973;28;20201;-72
2022/05/19 12:26:01;;;;;;;23.88;21.40;;;;;;;;;;5028966;28;20664;-71
2022/05/19 12:28:28;;;;;;;26.55;23.42;;;;;;;;;;5011651;28;20198;-72
2022/05/19 12:33:56;;;;;;;25.15;22.63;;;;;;;;;;5010305;28;20209;-72
2022/05/19 12:36:26;;;;;;;25.05;22.42;;;;;;;;;;5012331;28;20600;-73
2022/05/19 12:38:52;;;;;;;28.38;25.52;;;;;;;;;;5012316;28;20174;-72
2022/05/19 12:41:23;;;;;;;29.35;26.30;;;;;;;;;;5009785;28;20215;-72
2022/05/19 12:43:49;;;;;;;30.35;26.48;;;;;;;;;;5011576;28;20182;-72
2022/05/19 12:46:33;;;;;;;30.98;27.10;;;;;;;;;;5004396;28;20626;-72
2022/05/19 12:49:16;;;;;;;29.38;26.40;;;;;;;;;;5009807;28;20255;-72
2022/05/19 12:51:46;;;;;;;28.85;25.75;;;;;;;;;;5011452;28;20215;-73
2022/05/19 12:54:11;;;;;;;26.95;24.23;;;;;;;;;;5010202;28;20174;-73
2022/05/19 12:56:46;;;;;;;27.02;24.33;;;;;;;;;;5012422;28;20258;-72
2022/05/19 12:59:30;;;;;;;27.30;24.88;;;;;;;;;;5011510;28;20649;-72
2022/05/19 13:01:57;;;;;;;26.85;24.17;;;;;;;;;;5012755;28;20262;-72
2022/05/19 13:04:25;;;;;;;29.25;26.15;;;;;;;;;;5014616;28;20202;-72
2022/05/19 13:06:53;;;;;;;29.90;26.73;;;;;;;;;;5034376;28;20198;-72
2022/05/19 13:09:22;;;;;;;30.30;27.23;;;;;;;;;;5016094;28;20187;-73
2022/05/19 13:11:52;;;;;;;29.83;26.75;;;;;;;;;;5009767;28;20215;-71
2022/05/19 13:14:19;;;;;;;26.02;23.35;;;;;;;;;;5011380;28;20187;-72
2022/05/19 13:16:48;;;;;;;27.17;24.52;;;;;;;;;;5011426;28;20199;-71
2022/05/19 13:19:15;;;;;;;25.20;22.77;;;;;;;;;;5016890;28;20614;-72
2022/05/19 13:21:45;;;;;;;24.90;22.48;;;;;;;;;;5011141;28;20260;-72
2022/05/19 13:24:12;;;;;;;22.80;20.65;;;;;;;;;;5010412;28;20286;-72
2022/05/19 13:26:38;;;;;;;22.10;19.90;;;;;;;;;;5012138;28;20183;-72
2022/05/19 13:32:02;;;;;;;20.27;18.02;;;;;;;;;;5015244;28;20238;-72
2022/05/19 13:34:41;;;;;;;19.17;17.42;;;;;;;;;;5021471;28;20618;-72
2022/05/19 13:37:06;;;;;;;19.75;17.67;;;;;;;;;;5012779;28;20175;-72
2022/05/19 13:39:32;;;;;;;15.15;13.60;;;;;;;;;;5018785;28;20181;-72
2022/05/19 13:42:06;;;;;;;15.85;14.45;;;;;;;;;;5014852;28;20209;-72
2022/05/19 13:44:46;;;;;;;16.75;15.20;;;;;;;;;;5030017;28;20668;-72
2022/05/19 13:47:14;;;;;;;14.82;13.50;;;;;;;;;;5016254;28;20178;-72
2022/05/19 13:49:40;;;;;;;13.85;10.07;;;;;;;;;;5013093;28;20182;-72
2022/05/19 13:52:07;;;;;;;12.93;11.73;;;;;;;;;;5013441;28;20222;-72
2022/05/19 13:54:41;;;;;;;11.48;10.40;;;;;;;;;;5015668;28;20233;-72
2022/05/19 13:57:07;;;;;;;9.73;8.73;;;;;;;;;;5015802;28;20695;-72
2022/05/19 13:59:32;;;;;;;8.07;7.05;;;;;;;;;;5013041;28;20179;-71
2022/05/19 14:02:06;;;;;;;8.00;6.97;;;;;;;;;;5016214;28;20210;-71
2022/05/19 14:04:32;;;;;;;8.07;7.28;;;;;;;;;;5031458;28;20258;-71
2022/05/19 14:06:57;;;;;;;7.32;6.28;;;;;;;;;;5034425;28;20732;-71
2022/05/19 14:09:26;;;;;;;8.82;8.02;;;;;;;;;;5010928;28;20183;-71
2022/05/19 14:12:10;;;;;;;9.43;8.57;;;;;;;;;;5013541;28;20230;-71
2022/05/19 14:14:35;;;;;;;8.10;7.40;;;;;;;;;;5013724;28;20564;-71
2022/05/19 14:17:00;;;;;;;9.20;8.37;;;;;;;;;;5009132;28;20447;-71
2022/05/19 14:19:37;;;;;;;7.53;6.82;;;;;;;;;;5012885;28;20488;-71
2022/05/19 14:22:02;;;;;;;8.75;7.95;;;;;;;;;;5009010;28;20195;-71
2022/05/19 14:24:27;;;;;;;8.35;7.00;;;;;;;;;;5030884;28;20186;-71
2022/05/19 14:26:54;;;;;;;7.75;6.97;;;;;;;;;;5012835;28;20194;-71
2022/05/19 14:29:20;;;;;;;7.78;6.95;;;;;;;;;;5019455;28;20690;-71
2022/05/19 14:31:48;;;;;;;8.80;7.32;;;;;;;;;;5017019;28;20214;-71
2022/05/19 14:34:19;;;;;;;7.28;6.65;;;;;;;;;;5013257;28;20171;-71
2022/05/19 14:36:52;;;;;;;7.90;7.15;;;;;;;;;;5014158;28;20232;-71
2022/05/19 14:39:20;;;;;;;8.48;7.68;;;;;;;;;;5012730;28;20237;-71
2022/05/19 14:44:31;;;;;;;8.15;7.40;;;;;;;;;;5012549;28;20189;-71
2022/05/19 14:47:16;;;;;;;7.32;6.63;;;;;;;;;;5008497;28;20232;-71
2022/05/19 14:49:44;;;;;;;7.28;6.57;;;;;;;;;;5000994;28;20182;-72
2022/05/19 14:52:10;;;;;;;8.55;7.78;;;;;;;;;;5016685;28;20203;-71
2022/05/19 14:54:37;;;;;;;9.45;8.38;;;;;;;;;;5011309;28;20653;-71
2022/05/19 14:57:06;;;;;;;11.05;9.93;;;;;;;;;;5015322;28;20186;-71
2022/05/19 14:59:45;;;;;;;10.30;9.27;;;;;;;;;;5012029;28;20187;-71
2022/05/19 15:02:11;;;;;;;10.05;9.05;;;;;;;;;;5004047;28;20203;-71
2022/05/19 15:04:36;;;;;;;10.98;8.93;;;;;;;;;;5011261;28;20183;-71
2022/05/19 15:07:09;;;;;;;11.53;9.53;;;;;;;;;;5012270;28;20654;-71